Time;durP1;ratioP1;P1;durP2;ratioP2;P2;SDS_P1;SDS_P2;PMS_P1;PMS_P2;Temp;Humidity;BMP_temperature;BMP_pressure;BME280_temperature;BME280_humidity;BME280_pressure;Samples;Min_cycle;Max_cycle;Signal;HPM_P1;HPM_P2
2021/07/06 00:03:49;;;;;;;1999.90;999.90;;;;;;;21.17;70.88;100637.97;15798628;28;20076;-61
2021/07/06 00:11:22;;;;;;;1999.90;999.90;;;;;;;21.02;72.49;100640.00;15798655;28;20466;-62
2021/07/06 00:18:54;;;;;;;1999.90;999.90;;;;;;;21.11;72.23;100638.78;15798649;28;20047;-60
2021/07/06 00:26:28;;;;;;;1999.90;999.90;;;;;;;21.08;73.50;100643.25;15779020;28;20048;-60
2021/07/06 00:34:00;;;;;;;1999.90;999.90;;;;;;;20.99;73.68;100637.16;15778905;28;20075;-60
2021/07/06 00:41:34;;;;;;;1999.90;999.90;;;;;;;20.96;73.94;100641.63;15778022;28;20047;-61
2021/07/06 00:49:06;;;;;;;1999.90;999.90;;;;;;;20.95;73.58;100642.84;15778919;28;20395;-61
2021/07/06 00:56:40;;;;;;;1999.90;999.90;;;;;;;20.76;74.53;100631.91;15795255;28;20131;-60
2021/07/06 01:04:12;;;;;;;1999.90;999.90;;;;;;;20.36;75.22;100624.53;15761586;28;20044;-61
2021/07/06 01:11:46;;;;;;;1999.90;999.90;;;;;;;20.74;73.90;100631.50;15795785;28;20417;-61
2021/07/06 01:19:19;;;;;;;1999.90;999.90;;;;;;;20.62;74.49;100627.03;15760970;28;20044;-61
2021/07/06 01:26:52;;;;;;;1999.90;999.90;;;;;;;20.45;74.62;100620.13;15796460;28;20048;-59
2021/07/06 01:34:25;;;;;;;1999.90;999.90;;;;;;;20.58;74.63;100614.88;15794720;28;20101;-61
2021/07/06 01:41:59;;;;;;;1999.90;999.90;;;;;;;20.32;74.89;100621.72;15776642;28;20395;-61
2021/07/06 01:49:33;;;;;;;1999.90;999.90;;;;;;;20.40;74.92;100622.50;15794720;28;20071;-61
2021/07/06 01:57:06;;;;;;;1999.90;999.90;;;;;;;20.26;75.42;100614.00;15776931;28;20028;-60
2021/07/06 02:04:38;;;;;;;1999.90;999.90;;;;;;;20.25;74.69;100623.72;15800279;28;20255;-61
2021/07/06 02:12:12;;;;;;;1999.90;999.90;;;;;;;20.06;75.72;100625.69;15806762;28;20373;-60
2021/07/06 02:19:44;;;;;;;1999.90;999.90;;;;;;;19.69;76.64;100622.28;15805671;28;20487;-59
2021/07/06 02:27:18;;;;;;;1999.90;999.90;;;;;;;19.11;80.16;100601.34;15770804;28;20131;-61
2021/07/06 02:34:50;;;;;;;1999.90;999.90;;;;;;;19.38;79.52;100610.38;15786506;28;20105;-59
2021/07/06 02:42:23;;;;;;;1999.90;999.90;;;;;;;19.72;77.97;100605.34;15786126;28;20127;-59
2021/07/06 02:49:56;;;;;;;1999.90;999.90;;;;;;;19.44;77.89;100586.16;15804009;28;20098;-61
2021/07/06 02:57:35;;;;;;;1999.90;999.90;;;;;;;19.37;78.95;100582.50;15802848;28;20135;-61
2021/07/06 03:05:10;;;;;;;1999.90;999.90;;;;;;;19.66;77.61;100572.97;15784359;28;20089;-60
2021/07/06 03:12:44;;;;;;;1999.90;999.90;;;;;;;19.69;77.52;100571.34;15802088;28;20054;-61
2021/07/06 03:20:18;;;;;;;1999.90;999.90;;;;;;;19.81;77.49;100583.13;15800438;28;20051;-60
2021/07/06 03:27:52;;;;;;;1999.90;999.90;;;;;;;19.58;79.00;100579.78;15783575;28;20211;-61
2021/07/06 03:35:24;;;;;;;1999.90;999.90;;;;;;;19.66;78.61;100589.13;15800956;28;20082;-61
2021/07/06 03:42:58;;;;;;;1999.90;999.90;;;;;;;19.98;77.24;100575.06;15800900;28;20075;-61
2021/07/06 03:50:30;;;;;;;1999.90;999.90;;;;;;;19.87;77.51;100577.88;15781683;28;20044;-62
2021/07/06 03:58:04;;;;;;;1999.90;999.90;;;;;;;20.27;76.62;100590.94;15799483;28;20135;-61
2021/07/06 04:05:36;;;;;;;1999.90;999.90;;;;;;;20.15;77.43;100585.66;15780441;28;20504;-61
2021/07/06 04:13:09;;;;;;;1999.90;999.90;;;;;;;20.05;76.96;100572.28;15798793;28;20048;-62
2021/07/06 04:20:42;;;;;;;1999.90;999.90;;;;;;;19.53;79.15;100583.78;15763488;28;20044;-60
2021/07/06 04:28:15;;;;;;;1999.90;999.90;;;;;;;20.14;76.47;100590.50;15797127;28;20047;-60
2021/07/06 04:35:47;;;;;;;1999.90;999.90;;;;;;;20.03;76.81;100591.69;15808225;22;20044;-62
2021/07/06 04:43:30;;;;;;;1999.90;999.90;;;;;;;20.18;76.40;100588.47;15849560;28;20047;-61
2021/07/06 04:51:06;;;;;;;1999.90;999.90;;;;;;;20.43;75.63;100585.72;15803842;28;20040;-62
2021/07/06 04:58:52;;;;;;;1999.90;999.90;;;;;;;20.50;75.13;100586.94;15801815;28;20097;-61
2021/07/06 05:06:24;;;;;;;1999.90;999.90;;;;;;;20.82;73.94;100582.06;15736275;28;20052;-61
2021/07/06 05:13:58;;;;;;;1999.90;999.90;;;;;;;21.10;72.04;100586.09;15773038;28;20087;-59
2021/07/06 05:21:30;;;;;;;1999.90;999.90;;;;;;;21.15;71.79;100592.16;15756895;28;20472;-61
2021/07/06 05:29:05;;;;;;;1999.90;999.90;;;;;;;21.31;71.68;100594.59;15801229;28;20423;-61
2021/07/06 05:36:37;;;;;;;1999.90;999.90;;;;;;;21.89;69.99;100581.81;15800395;28;20094;-60
2021/07/06 05:44:12;;;;;;;;;;;;;;;22.78;66.92;100584.03;15812877;28;20053;-60
2021/07/06 05:51:44;;;;;;;1999.90;999.90;;;;;;;22.82;66.13;100590.50;15794747;28;19997;-62
2021/07/06 05:59:18;;;;;;;1999.90;999.90;;;;;;;23.59;63.73;100593.84;15792624;28;20066;-63
2021/07/06 06:06:50;;;;;;;1999.90;999.90;;;;;;;22.96;64.73;100581.88;15794688;28;20068;-61
2021/07/06 06:14:23;;;;;;;1999.90;999.90;;;;;;;23.97;62.30;100575.84;15778044;28;20080;-63
2021/07/06 06:21:55;;;;;;;1999.90;999.90;;;;;;;24.00;61.55;100572.16;15794806;28;20444;-61
2021/07/06 06:29:29;;;;;;;1999.90;999.90;;;;;;;25.24;60.80;100567.28;15793722;28;20131;-59
2021/07/06 06:37:01;;;;;;;1999.90;999.90;;;;;;;25.18;57.98;100571.06;15809910;28;20075;-59
2021/07/06 06:44:35;;;;;;;1999.90;999.90;;;;;;;25.36;58.80;100557.25;15792446;28;20105;-59
2021/07/06 06:52:07;;;;;;;1999.90;999.90;;;;;;;25.45;57.07;100562.38;15791584;28;20052;-60
2021/07/06 06:59:41;;;;;;;1999.90;999.90;;;;;;;25.72;55.37;100560.19;15809540;28;20105;-63
2021/07/06 07:07:13;;;;;;;1999.90;999.90;;;;;;;26.48;54.60;100570.78;15790549;28;20068;-61
2021/07/06 07:14:46;;;;;;;;;;;;;;;27.07;51.80;100555.34;15790912;28;20181;-62
2021/07/06 07:22:19;;;;;;;1999.90;999.90;;;;;;;27.44;50.51;100568.25;15789843;28;20033;-62
2021/07/06 07:29:52;;;;;;;1999.90;999.90;;;;;;;27.83;49.72;100561.41;15807464;28;20102;-62
2021/07/06 07:37:25;;;;;;;1999.90;999.90;;;;;;;26.88;52.01;100568.50;15806908;28;20092;-61
2021/07/06 07:44:59;;;;;;;1999.90;999.90;;;;;;;27.12;51.71;100584.25;15806340;28;20036;-62
2021/07/06 07:52:33;;;;;;;1999.90;999.90;;;;;;;28.36;48.88;100590.50;15782999;28;20079;-62
2021/07/06 08:00:08;;;;;;;1999.90;999.90;;;;;;;28.40;47.84;100586.25;15803033;28;20047;-62
2021/07/06 08:07:44;;;;;;;1999.90;999.90;;;;;;;28.42;47.15;100592.31;15777171;28;20040;-62
2021/07/06 08:15:18;;;;;;;1999.90;999.90;;;;;;;27.92;48.45;100578.72;15721849;28;20056;-62
2021/07/06 08:22:51;;;;;;;1999.90;999.90;;;;;;;28.36;46.92;100565.50;15704453;28;20044;-60
2021/07/06 08:30:24;;;;;;;1999.90;999.90;;;;;;;29.03;46.17;100594.00;15721089;28;20568;-63
2021/07/06 08:37:57;;;;;;;1999.90;999.90;;;;;;;29.10;45.09;100584.34;15738670;28;20127;-63
2021/07/06 08:45:32;;;;;;;1999.90;999.90;;;;;;;29.42;44.03;100573.75;15757273;28;20036;-62
2021/07/06 08:53:04;;;;;;;1999.90;999.90;;;;;;;29.28;43.67;100567.28;15783828;28;20050;-63
2021/07/06 09:00:39;;;;;;;1999.90;999.90;;;;;;;29.92;42.58;100575.59;15801199;28;20036;-63
2021/07/06 09:08:17;;;;;;;1999.90;999.90;;;;;;;30.07;41.72;100565.13;15800841;28;20131;-64
2021/07/06 09:15:54;;;;;;;1999.90;999.90;;;;;;;29.55;42.15;100563.84;15788261;28;20131;-62
2021/07/06 09:23:29;;;;;;;1999.90;999.90;;;;;;;31.00;40.94;100561.31;15794936;28;20139;-63
2021/07/06 09:31:21;;;;;;;1999.90;999.90;;;;;;;31.44;39.42;100558.94;15761962;28;20071;-64
2021/07/06 09:39:04;;;;;;;1999.90;999.90;;;;;;;31.48;38.58;100556.72;15788748;28;20044;-63
2021/07/06 09:46:46;;;;;;;1999.90;999.90;;;;;;;31.32;38.84;100545.50;15812760;28;20471;-63
2021/07/06 09:54:33;;;;;;;1999.90;999.90;;;;;;;32.43;37.16;100527.47;15804287;28;20048;-63
2021/07/06 10:02:09;;;;;;;1999.90;999.90;;;;;;;32.69;36.97;100527.78;15733844;28;20037;-63
2021/07/06 10:09:42;;;;;;;1999.90;999.90;;;;;;;32.45;36.93;100526.97;15761694;28;20131;-63
2021/07/06 10:17:16;;;;;;;1999.90;999.90;;;;;;;33.12;36.28;100524.78;15800251;28;20234;-64
2021/07/06 10:24:49;;;;;;;1999.90;999.90;;;;;;;33.30;34.67;100516.75;15792319;28;20043;-62
2021/07/06 10:32:39;;;;;;;1999.90;999.90;;;;;;;33.28;35.81;100525.13;15810247;28;20409;-62
2021/07/06 10:40:18;;;;;;;1999.90;999.90;;;;;;;32.79;34.78;100502.53;15773936;28;20135;-61
2021/07/06 10:47:53;;;;;;;1999.90;999.90;;;;;;;33.10;34.49;100502.16;15769858;28;20040;-63
2021/07/06 10:55:35;;;;;;;1999.90;999.90;;;;;;;33.99;34.50;100499.38;15744764;28;20059;-63
2021/07/06 11:03:16;;;;;;;1999.90;999.90;;;;;;;33.68;33.73;100494.88;15802264;28;20121;-64
2021/07/06 11:10:50;;;;;;;1999.90;999.90;;;;;;;33.31;34.21;100483.63;15771687;28;20044;-64
2021/07/06 11:18:36;;;;;;;1999.90;999.90;;;;;;;32.57;34.95;100488.38;15787737;28;20059;-63
2021/07/06 11:26:10;;;;;;;1999.90;999.90;;;;;;;34.10;33.65;100493.75;15804662;28;20046;-63
2021/07/06 11:33:43;;;;;;;1999.90;999.90;;;;;;;33.40;33.25;100493.56;15804864;28;20044;-66
2021/07/06 11:41:20;;;;;;;1999.90;999.90;;;;;;;33.64;33.70;100499.25;15786619;28;20044;-64
2021/07/06 11:48:54;;;;;;;1999.90;999.90;;;;;;;33.66;33.34;100485.06;15738598;28;20485;-62
2021/07/06 11:56:28;;;;;;;1999.90;999.90;;;;;;;34.06;32.79;100459.22;15740172;28;20048;-61
2021/07/06 12:04:02;;;;;;;1999.90;999.90;;;;;;;33.95;32.81;100476.41;15722401;28;20051;-62
2021/07/06 12:11:34;;;;;;;1999.90;999.90;;;;;;;35.10;30.31;100464.59;15740138;28;20072;-62
2021/07/06 12:19:10;;;;;;;1999.90;999.90;;;;;;;34.73;30.88;100465.22;15704941;28;20040;-64
2021/07/06 12:26:43;;;;;;;1999.90;999.90;;;;;;;33.29;33.80;100454.44;15721191;28;20467;-64
2021/07/06 12:34:18;;;;;;;1999.90;999.90;;;;;;;36.42;29.43;100434.41;15721445;28;20044;-63
2021/07/06 12:41:53;;;;;;;1999.90;999.90;;;;;;;35.01;30.50;100422.06;15720492;28;20421;-63
2021/07/06 12:49:27;;;;;;;1999.90;999.90;;;;;;;37.83;28.00;100439.31;15771974;28;20067;-62
2021/07/06 12:56:59;;;;;;;1999.90;999.90;;;;;;;36.86;28.79;100444.66;15800291;28;20123;-63
2021/07/06 13:04:58;;;;;;;1999.90;999.90;;;;;;;38.42;26.53;100443.97;15782316;28;20203;-62
2021/07/06 13:12:30;;;;;;;1999.90;999.90;;;;;;;35.96;29.13;100437.53;15800307;28;20036;-63
2021/07/06 13:20:07;;;;;;;1999.90;999.90;;;;;;;33.62;31.40;100435.31;15800193;28;20094;-62
2021/07/06 13:27:40;;;;;;;1999.90;999.90;;;;;;;33.97;33.00;100435.38;15781872;28;20068;-63
2021/07/06 13:35:15;;;;;;;1999.90;999.90;;;;;;;33.66;33.01;100433.00;15764915;28;20044;-63
2021/07/06 13:42:47;;;;;;;1999.90;999.90;;;;;;;32.53;34.44;100427.16;15799761;28;20123;-63
2021/07/06 13:50:23;;;;;;;1999.90;999.90;;;;;;;32.64;35.19;100441.03;15782155;28;20048;-62
2021/07/06 13:57:56;;;;;;;1999.90;999.90;;;;;;;32.50;34.48;100422.34;15798757;28;20046;-63
2021/07/06 14:05:30;;;;;;;1999.90;999.90;;;;;;;32.62;34.61;100426.25;15791822;28;20075;-62
2021/07/06 14:13:03;;;;;;;1999.90;999.90;;;;;;;33.12;34.60;100424.41;15792146;28;20485;-63
2021/07/06 14:20:36;;;;;;;1999.90;999.90;;;;;;;33.50;35.00;100432.22;15786747;28;20451;-63
2021/07/06 14:28:08;;;;;;;1999.90;999.90;;;;;;;32.59;34.94;100448.25;15764742;28;20148;-64
2021/07/06 14:35:42;;;;;;;1999.90;999.90;;;;;;;32.53;36.02;100449.44;15787393;28;20287;-63
2021/07/06 14:43:14;;;;;;;1999.90;999.90;;;;;;;32.28;36.26;100465.13;15809841;28;20056;-62
2021/07/06 14:50:48;;;;;;;1999.90;999.90;;;;;;;31.97;36.65;100462.53;15807410;28;20163;-61
2021/07/06 14:58:20;;;;;;;1999.90;999.90;;;;;;;31.66;35.99;100463.59;15788731;28;20074;-62
2021/07/06 15:05:54;;;;;;;1999.90;999.90;;;;;;;31.41;37.91;100476.31;15806721;28;20408;-61
2021/07/06 15:13:27;;;;;;;1999.90;999.90;;;;;;;31.26;37.39;100475.38;15787251;28;20040;-62
2021/07/06 15:21:00;;;;;;;1999.90;999.90;;;;;;;30.25;41.04;100488.81;15783923;28;20059;-65
2021/07/06 15:28:33;;;;;;;1999.90;999.90;;;;;;;29.26;45.42;100525.88;15769306;28;20059;-63
2021/07/06 15:36:06;;;;;;;1999.90;999.90;;;;;;;28.86;48.36;100542.88;15789642;28;20044;-62
2021/07/06 15:43:39;;;;;;;1999.90;999.90;;;;;;;28.16;52.59;100542.72;15806105;28;20112;-63
2021/07/06 15:51:17;;;;;;;1999.90;999.90;;;;;;;28.66;53.19;100521.03;15789553;28;20044;-63
2021/07/06 15:58:49;;;;;;;1999.90;999.90;;;;;;;28.94;53.43;100490.53;15771505;28;20089;-63
2021/07/06 16:06:23;;;;;;;1999.90;999.90;;;;;;;28.81;52.03;100486.88;15787753;28;20047;-63
2021/07/06 16:13:55;;;;;;;1999.90;999.90;;;;;;;28.39;52.86;100480.56;15805227;28;20152;-63
2021/07/06 16:21:28;;;;;;;;;;;;;;;28.70;53.10;100484.38;15787041;28;20619;-62
2021/07/06 16:29:00;;;;;;;1999.90;999.90;;;;;;;28.54;52.66;100493.13;15785792;28;19924;-62
2021/07/06 16:36:34;;;;;;;1999.90;999.90;;;;;;;28.21;52.51;100475.38;15803142;28;20048;-60
2021/07/06 16:44:07;;;;;;;1999.90;999.90;;;;;;;28.29;52.83;100487.44;15793747;28;20046;-62
2021/07/06 18:10:22;;;;;;;1999.90;999.90;;;;;;;28.07;55.98;100513.94;15593269;28;20444;-59
2021/07/06 18:17:56;;;;;;;1999.90;999.90;;;;;;;27.66;56.20;100545.53;15790003;28;20093;-59
2021/07/06 18:25:30;;;;;;;1999.90;999.90;;;;;;;27.57;55.79;100524.03;15774972;28;20405;-63
2021/07/06 18:33:02;;;;;;;1999.90;999.90;;;;;;;27.08;55.66;100505.41;15791216;28;20093;-59
2021/07/06 18:40:36;;;;;;;1999.90;999.90;;;;;;;26.89;55.42;100490.00;15809423;28;20105;-61
2021/07/06 18:48:09;;;;;;;1999.90;999.90;;;;;;;26.95;56.39;100516.78;15749716;28;20499;-58
2021/07/06 18:55:43;;;;;;;1999.90;999.90;;;;;;;27.09;56.14;100501.31;15790221;28;20048;-62
2021/07/06 19:03:17;;;;;;;1999.90;999.90;;;;;;;27.07;57.47;100492.38;15790225;28;20052;-59
2021/07/06 19:10:50;;;;;;;1999.90;999.90;;;;;;;26.74;57.51;100561.09;15808291;28;20056;-62
2021/07/06 19:18:24;;;;;;;1999.90;999.90;;;;;;;26.39;58.19;100588.53;15762364;28;20044;-62
2021/07/06 19:33:44;;;;;;;1999.90;999.90;;;;;;;26.03;56.91;100642.84;15807003;28;20207;-62
2021/07/06 19:41:18;;;;;;;1999.90;999.90;;;;;;;26.01;57.31;100651.84;15806897;28;20047;-63
2021/07/06 19:48:50;;;;;;;1999.90;999.90;;;;;;;25.92;56.83;100665.13;15788187;28;20044;-63
2021/07/06 19:56:24;;;;;;;1999.90;999.90;;;;;;;25.75;57.21;100684.25;15805336;28;20271;-61
2021/07/06 20:03:56;;;;;;;1999.90;999.90;;;;;;;25.84;57.32;100665.25;15764439;28;20048;-65
2021/07/06 20:11:29;;;;;;;1999.90;999.90;;;;;;;25.74;58.01;100668.34;15770700;28;20039;-62
2021/07/06 20:19:02;;;;;;;1999.90;999.90;;;;;;;25.68;58.58;100702.31;15804721;28;20450;-62
2021/07/06 20:26:36;;;;;;;1999.90;999.90;;;;;;;25.52;59.06;100711.56;15804796;28;20052;-61
2021/07/06 20:34:10;;;;;;;1999.90;999.90;;;;;;;25.33;59.56;100718.06;15799790;28;20089;-62
2021/07/06 20:41:43;;;;;;;1999.90;999.90;;;;;;;25.13;60.21;100717.19;15798145;28;20055;-63
2021/07/06 20:49:17;;;;;;;1999.90;999.90;;;;;;;25.07;60.39;100722.56;15790746;28;20087;-61
2021/07/06 20:56:51;;;;;;;1999.90;999.90;;;;;;;24.88;60.50;100732.59;15787211;28;20051;-59
2021/07/06 21:04:23;;;;;;;1999.90;999.90;;;;;;;24.59;63.79;100749.31;15774375;28;20035;-61
2021/07/06 21:11:56;;;;;;;1999.90;999.90;;;;;;;24.82;65.68;100727.84;15766348;28;20045;-62
2021/07/06 21:19:28;;;;;;;1999.90;999.90;;;;;;;24.63;66.30;100750.09;15742158;28;20082;-60
2021/07/06 21:27:03;;;;;;;1999.90;999.90;;;;;;;24.51;66.89;100755.56;15784264;28;20236;-62
2021/07/06 21:34:38;;;;;;;1999.90;999.90;;;;;;;24.28;68.24;100753.38;15801012;28;20048;-64
2021/07/06 21:42:12;;;;;;;1999.90;999.90;;;;;;;24.30;69.26;100768.03;15768821;28;20543;-60
2021/07/06 21:49:44;;;;;;;1999.90;999.90;;;;;;;24.26;68.25;100744.44;15785474;28;20094;-62
2021/07/06 21:57:17;;;;;;;1999.90;999.90;;;;;;;24.25;69.42;100752.19;15783560;28;20058;-62
2021/07/06 22:04:49;;;;;;;1999.90;999.90;;;;;;;24.05;69.54;100757.72;15801503;28;20048;-61
2021/07/06 22:12:23;;;;;;;1999.90;999.90;;;;;;;24.05;69.34;100777.66;15769476;28;20032;-62
2021/07/06 22:19:55;;;;;;;1999.90;999.90;;;;;;;23.69;69.68;100785.78;15752096;28;20036;-62
2021/07/06 22:27:29;;;;;;;1999.90;999.90;;;;;;;23.61;69.97;100779.34;15776511;28;20105;-60
2021/07/06 22:35:02;;;;;;;1999.90;999.90;;;;;;;23.43;70.31;100809.16;15792845;28;20054;-60
2021/07/06 22:42:36;;;;;;;1999.90;999.90;;;;;;;23.16;70.44;100809.78;15778214;28;20135;-59
2021/07/06 22:50:10;;;;;;;1999.90;999.90;;;;;;;23.10;69.82;100804.94;15789527;22;20039;-87
2021/07/06 22:57:44;;;;;;;1999.90;999.90;;;;;;;23.15;69.04;100819.56;15885048;27;20051;-86
2021/07/06 23:05:16;;;;;;;1999.90;999.90;;;;;;;23.03;67.64;100842.78;15846983;22;20040;-63
2021/07/06 23:12:50;;;;;;;1999.90;999.90;;;;;;;23.14;66.22;100852.09;15847062;27;20051;-64
2021/07/06 23:20:22;;;;;;;1999.90;999.90;;;;;;;23.12;65.56;100880.13;15858729;27;20044;-64
2021/07/06 23:27:55;;;;;;;1999.90;999.90;;;;;;;23.04;64.61;100861.50;15880599;27;20494;-64
2021/07/06 23:35:28;;;;;;;1999.90;999.90;;;;;;;23.14;64.86;100860.63;15905210;27;20109;-63
2021/07/06 23:43:02;;;;;;;;;;;;;;;23.26;65.70;100857.28;15890933;27;20130;-64
2021/07/06 23:50:34;;;;;;;1999.90;999.90;;;;;;;23.14;65.88;100880.56;15862987;27;19969;-64
2021/07/06 23:58:08;;;;;;;1999.90;999.90;;;;;;;23.11;66.29;100891.94;15889338;27;20127;-64
